createdAt,value
2022-11-09T00:01:06.987Z,98.58
2022-11-09T00:03:34.277Z,99.84
2022-11-09T00:06:01.568Z,99.14
2022-11-09T00:08:29.266Z,98.82
2022-11-09T00:11:03.202Z,99.44
2022-11-09T00:13:35.438Z,98.23
2022-11-09T00:16:03.068Z,99.42
2022-11-09T00:18:30.355Z,98.49
2022-11-09T00:20:58.130Z,98.30
2022-11-09T00:23:31.345Z,98.37
2022-11-09T00:26:07.458Z,99.10
2022-11-09T00:28:37.779Z,97.95
2022-11-09T00:31:08.097Z,98.36
2022-11-09T00:33:35.559Z,98.53
2022-11-09T00:36:08.053Z,97.84
2022-11-09T00:38:36.822Z,97.23
2022-11-09T00:41:05.313Z,96.88
2022-11-09T00:43:33.597Z,97.35
2022-11-09T00:46:01.309Z,98.04
2022-11-09T00:48:28.749Z,98.63
2022-11-09T00:50:57.426Z,98.15
2022-11-09T00:53:25.360Z,98.61
2022-11-09T00:56:04.719Z,97.44
2022-11-09T00:58:34.319Z,97.33
2022-11-09T01:01:17.480Z,96.60
2022-11-09T01:03:45.525Z,95.53
2022-11-09T01:06:24.624Z,96.61
2022-11-09T01:08:52.527Z,95.78
2022-11-09T01:11:21.710Z,95.75
2022-11-09T01:13:49.053Z,95.56
2022-11-09T01:16:23.260Z,95.15
2022-11-09T01:18:53.939Z,96.06
2022-11-09T01:21:21.243Z,96.12
2022-11-09T01:23:48.459Z,95.28
2022-11-09T01:26:16.094Z,95.61
2022-11-09T01:28:44.078Z,96.22
2022-11-09T01:31:14.276Z,97.08
2022-11-09T01:33:42.173Z,96.10
2022-11-09T01:36:13.270Z,95.99
2022-11-09T01:38:41.082Z,96.26
2022-11-09T01:41:11.841Z,96.18
2022-11-09T01:43:39.130Z,95.95
2022-11-09T01:46:24.830Z,95.68
2022-11-09T01:48:59.526Z,95.55
2022-11-09T01:51:36.998Z,94.65
2022-11-09T01:54:20.414Z,94.43
2022-11-09T01:56:51.781Z,94.97
2022-11-09T01:59:22.154Z,94.18
2022-11-09T02:01:50.893Z,93.82
2022-11-09T02:04:30.398Z,94.13
2022-11-09T02:06:59.523Z,93.40
2022-11-09T02:09:33.461Z,93.60
2022-11-09T02:12:00.782Z,93.85
2022-11-09T02:14:30.138Z,95.38
2022-11-09T02:16:57.410Z,93.82
2022-11-09T02:19:24.614Z,93.21
2022-11-09T02:21:52.120Z,93.64
2022-11-09T02:24:20.413Z,94.43
2022-11-09T02:26:52.330Z,94.67
2022-11-09T02:29:27.572Z,94.97
2022-11-09T02:31:58.869Z,94.96
2022-11-09T02:34:27.431Z,94.57
2022-11-09T02:36:54.813Z,93.92
2022-11-09T02:39:24.608Z,94.16
2022-11-09T02:41:57.053Z,93.66
2022-11-09T02:44:25.671Z,93.26
2022-11-09T02:46:53.327Z,93.58
2022-11-09T02:49:20.578Z,94.12
2022-11-09T02:51:47.895Z,92.93
2022-11-09T02:54:15.185Z,93.54
2022-11-09T02:56:42.431Z,94.13
2022-11-09T02:59:09.669Z,93.95
2022-11-09T03:01:36.940Z,93.75
2022-11-09T03:04:04.394Z,93.20
2022-11-09T03:06:31.682Z,93.10
2022-11-09T03:08:58.994Z,93.70
2022-11-09T03:11:26.279Z,93.71
2022-11-09T03:13:53.871Z,93.86
2022-11-09T03:16:21.534Z,93.89
2022-11-09T03:18:48.837Z,93.83
2022-11-09T03:21:19.267Z,94.29
2022-11-09T03:23:46.525Z,94.90
2022-11-09T03:26:16.580Z,95.42
2022-11-09T03:28:44.018Z,94.51
2022-11-09T03:31:12.745Z,94.37
2022-11-09T03:33:40.093Z,95.29
2022-11-09T03:36:07.872Z,94.38
2022-11-09T03:38:35.574Z,94.44
2022-11-09T03:41:03.343Z,94.22
2022-11-09T03:43:31.086Z,96.46
2022-11-09T03:45:58.346Z,94.44
2022-11-09T03:48:25.623Z,94.09
2022-11-09T03:50:52.880Z,95.59
2022-11-09T03:53:20.314Z,95.33
2022-11-09T03:55:47.674Z,95.80
2022-11-09T03:58:14.927Z,96.43
2022-11-09T04:00:42.251Z,95.10
2022-11-09T04:03:09.558Z,95.38
2022-11-09T04:05:37.055Z,95.18
2022-11-09T04:08:04.620Z,94.91
2022-11-09T04:10:31.894Z,94.64
2022-11-09T04:13:18.765Z,95.05
2022-11-09T04:16:08.812Z,95.79
2022-11-09T04:18:55.330Z,94.67
2022-11-09T04:21:41.821Z,94.11
2022-11-09T04:24:28.280Z,95.51
2022-11-09T04:26:56.615Z,94.16
2022-11-09T04:29:26.615Z,94.89
2022-11-09T04:31:53.838Z,94.75
2022-11-09T04:34:21.245Z,95.26
2022-11-09T04:36:49.526Z,93.10
2022-11-09T04:39:16.867Z,85.12
2022-11-09T04:41:44.144Z,81.53
2022-11-09T04:44:11.343Z,85.06
2022-11-09T04:46:44.704Z,78.89
2022-11-09T04:49:17.793Z,77.73
2022-11-09T04:51:45.449Z,77.51
2022-11-09T04:54:14.405Z,78.77
2022-11-09T04:56:44.501Z,77.14
2022-11-09T04:59:11.776Z,81.08
2022-11-09T05:01:44.744Z,83.78
2022-11-09T05:04:17.851Z,82.64
2022-11-09T05:06:51.349Z,80.70
2022-11-09T05:09:22.702Z,79.90
2022-11-09T05:11:52.064Z,79.00
2022-11-09T05:14:33.883Z,82.08
2022-11-09T05:17:06.645Z,80.09
2022-11-09T05:19:33.917Z,78.33
2022-11-09T05:22:01.654Z,86.25
2022-11-09T05:24:34.944Z,87.96
2022-11-09T05:27:05.502Z,89.41
2022-11-09T05:29:33.628Z,89.75
2022-11-09T05:32:04.902Z,90.86
2022-11-09T05:34:33.063Z,91.55
2022-11-09T05:37:03.428Z,91.28
2022-11-09T05:39:31.215Z,91.96
2022-11-09T05:42:01.384Z,92.62
2022-11-09T05:44:28.845Z,92.69
2022-11-09T05:46:56.096Z,92.89
2022-11-09T05:49:23.391Z,91.93
2022-11-09T05:51:50.754Z,91.69
2022-11-09T05:54:18.111Z,91.43
2022-11-09T05:56:45.738Z,91.36
2022-11-09T05:59:22.006Z,92.20
2022-11-09T06:01:49.652Z,92.51
2022-11-09T06:04:16.950Z,92.78
2022-11-09T06:06:50.084Z,92.98
2022-11-09T06:09:17.605Z,92.12
2022-11-09T06:11:45.167Z,91.92
2022-11-09T06:14:12.563Z,91.84
2022-11-09T06:16:39.783Z,91.43
2022-11-09T06:19:07.155Z,91.77
2022-11-09T06:21:35.053Z,91.44
2022-11-09T06:24:02.455Z,91.99
2022-11-09T06:26:29.887Z,91.56
2022-11-09T06:28:58.508Z,90.87
2022-11-09T06:31:25.996Z,90.91
2022-11-09T06:33:53.622Z,90.93
2022-11-09T06:36:20.899Z,90.39
2022-11-09T06:38:49.325Z,90.84
2022-11-09T06:41:19.984Z,90.70
2022-11-09T06:43:47.225Z,91.37
2022-11-09T06:46:17.527Z,89.83
2022-11-09T06:48:45.065Z,89.99
2022-11-09T06:51:21.396Z,88.84
2022-11-09T06:53:55.467Z,90.27
2022-11-09T06:56:26.208Z,90.50
2022-11-09T06:58:56.411Z,90.58
2022-11-09T07:01:29.090Z,90.48
2022-11-09T07:04:02.809Z,91.61
2022-11-09T07:06:33.500Z,91.72
2022-11-09T07:09:01.320Z,91.06
2022-11-09T07:11:29.071Z,92.94
2022-11-09T07:13:59.219Z,94.45
2022-11-09T07:16:26.621Z,91.95
2022-11-09T07:18:55.313Z,90.54
2022-11-09T07:21:22.713Z,87.48
2022-11-09T07:23:50.395Z,87.63
2022-11-09T07:26:20.625Z,87.63
2022-11-09T07:28:48.078Z,88.29
2022-11-09T07:31:15.498Z,84.96
2022-11-09T07:33:42.810Z,83.33
2022-11-09T07:36:16.882Z,85.27
2022-11-09T07:38:47.149Z,86.39
2022-11-09T07:41:20.379Z,86.71
2022-11-09T07:43:52.233Z,85.03
2022-11-09T07:46:22.246Z,85.83
2022-11-09T07:48:49.519Z,84.41
2022-11-09T07:51:20.726Z,84.52
2022-11-09T07:53:51.473Z,83.04
2022-11-09T07:56:22.502Z,80.84
2022-11-09T07:58:55.199Z,79.57
2022-11-09T08:01:25.840Z,80.82
2022-11-09T08:04:11.436Z,79.66
2022-11-09T08:07:00.193Z,79.73
2022-11-09T08:09:45.469Z,80.64
2022-11-09T08:12:36.750Z,79.18
2022-11-09T08:15:22.007Z,78.46
2022-11-09T08:17:50.406Z,77.94
2022-11-09T08:20:18.493Z,77.23
2022-11-09T08:22:47.385Z,76.82
2022-11-09T08:25:15.123Z,79.11
2022-11-09T08:27:42.862Z,77.11
2022-11-09T08:30:14.241Z,78.58
2022-11-09T08:32:41.787Z,78.39
2022-11-09T08:35:11.064Z,77.82
2022-11-09T08:37:39.119Z,77.69
2022-11-09T08:40:07.399Z,77.89
2022-11-09T08:42:34.896Z,76.08
2022-11-09T08:45:02.849Z,77.63
2022-11-09T08:47:37.069Z,77.46
2022-11-09T08:50:08.442Z,76.76
2022-11-09T08:52:36.396Z,77.12
2022-11-09T08:55:09.285Z,77.94
2022-11-09T08:57:36.704Z,77.71
2022-11-09T09:00:12.788Z,78.65
2022-11-09T09:02:45.584Z,78.49
2022-11-09T09:05:12.894Z,78.22
2022-11-09T09:07:47.001Z,77.44
2022-11-09T09:10:14.411Z,76.71
2022-11-09T09:12:45.219Z,77.95
2022-11-09T09:15:15.251Z,77.69
2022-11-09T09:17:42.624Z,76.46
2022-11-09T09:20:10.282Z,75.81
2022-11-09T09:22:37.500Z,75.66
2022-11-09T09:25:08.509Z,75.30
2022-11-09T09:27:36.145Z,75.70
2022-11-09T09:30:04.562Z,75.31
2022-11-09T09:32:34.498Z,75.97
2022-11-09T09:35:01.812Z,75.26
2022-11-09T09:37:29.024Z,74.57
2022-11-09T09:39:56.297Z,76.23
2022-11-09T09:42:36.341Z,75.14
2022-11-09T09:45:20.133Z,76.27
2022-11-09T09:48:16.932Z,74.54
2022-11-09T09:50:50.485Z,74.47
2022-11-09T09:53:24.337Z,76.74
2022-11-09T09:56:02.609Z,76.69
2022-11-09T09:58:33.184Z,76.30
2022-11-09T10:01:12.419Z,75.70
2022-11-09T10:03:43.261Z,75.19
2022-11-09T10:06:29.286Z,73.82
2022-11-09T10:09:23.435Z,74.55
2022-11-09T10:12:08.149Z,74.69
2022-11-09T10:14:54.314Z,73.65
2022-11-09T10:17:51.281Z,73.65
2022-11-09T10:20:36.766Z,73.66
2022-11-09T10:23:27.078Z,73.34
2022-11-09T10:26:06.205Z,75.54
2022-11-09T10:29:01.766Z,72.62
2022-11-09T10:31:32.756Z,72.54
2022-11-09T10:34:12.777Z,72.41
2022-11-09T10:36:47.419Z,72.62
2022-11-09T10:39:19.678Z,72.44
2022-11-09T10:41:49.481Z,72.58
2022-11-09T10:44:18.537Z,71.49
2022-11-09T10:47:10.576Z,71.65
2022-11-09T10:49:38.844Z,72.59
2022-11-09T10:52:26.685Z,72.48
2022-11-09T10:54:54.021Z,72.62
2022-11-09T10:57:23.643Z,72.53
2022-11-09T10:59:58.292Z,72.71
2022-11-09T11:02:25.495Z,71.13
2022-11-09T11:05:18.615Z,70.38
2022-11-09T11:07:46.368Z,70.58
2022-11-09T11:10:16.393Z,70.47
2022-11-09T11:13:17.001Z,70.49
2022-11-09T11:15:47.466Z,65.48
2022-11-09T11:18:26.765Z,63.66
2022-11-09T11:21:18.503Z,65.62
2022-11-09T11:24:12.571Z,67.07
2022-11-09T11:26:53.154Z,69.31
2022-11-09T11:29:34.935Z,70.96
2022-11-09T11:32:02.403Z,71.80
2022-11-09T11:34:59.102Z,71.51
2022-11-09T11:37:33.484Z,70.74
2022-11-09T11:40:19.127Z,70.12
2022-11-09T11:43:12.620Z,71.33
2022-11-09T11:46:04.448Z,71.12
2022-11-09T11:49:12.878Z,71.95
2022-11-09T11:51:56.604Z,72.27
2022-11-09T11:54:29.836Z,72.39
2022-11-09T11:57:30.301Z,70.54
2022-11-09T12:00:18.395Z,71.13
2022-11-09T12:02:57.726Z,71.44
2022-11-09T12:05:46.517Z,71.69
2022-11-09T12:08:32.105Z,72.17
2022-11-09T12:11:01.960Z,72.29
2022-11-09T12:13:39.091Z,70.76
2022-11-09T12:16:20.113Z,71.71
2022-11-09T12:19:12.356Z,70.70
2022-11-09T12:21:55.470Z,70.36
2022-11-09T12:24:59.601Z,70.33
2022-11-09T12:28:24.980Z,70.66
2022-11-09T12:31:13.414Z,70.50
2022-11-09T12:34:06.711Z,69.79
2022-11-09T12:36:41.344Z,70.05
2022-11-09T12:39:17.384Z,69.74
2022-11-09T12:41:49.632Z,69.34
2022-11-09T12:44:27.603Z,67.66
2022-11-09T12:47:19.466Z,67.60
2022-11-09T12:49:47.233Z,67.43
2022-11-09T12:52:18.363Z,67.42
2022-11-09T12:54:49.780Z,68.23
2022-11-09T12:57:29.875Z,68.46
2022-11-09T12:59:59.971Z,68.20
2022-11-09T13:02:33.841Z,68.09
2022-11-09T13:05:07.620Z,67.76
2022-11-09T13:07:51.582Z,67.42
2022-11-09T13:10:31.468Z,66.38
2022-11-09T13:13:05.544Z,66.46
2022-11-09T13:15:34.720Z,67.17
2022-11-09T13:18:23.356Z,67.09
2022-11-09T13:20:56.050Z,68.05
2022-11-09T13:26:33.229Z,69.52
2022-11-09T13:29:15.604Z,69.20
2022-11-09T13:32:11.002Z,69.65
2022-11-09T13:35:02.762Z,69.48
2022-11-09T13:37:42.273Z,69.70
2022-11-09T13:40:31.094Z,69.74
2022-11-09T13:43:03.277Z,70.38
2022-11-09T13:45:39.080Z,70.41
2022-11-09T13:48:07.102Z,70.85
2022-11-09T13:50:35.516Z,70.72
2022-11-09T13:53:03.989Z,70.22
2022-11-09T13:55:44.379Z,71.59
2022-11-09T13:58:22.921Z,71.45
2022-11-09T14:00:54.125Z,71.74
2022-11-09T14:03:29.749Z,71.49
2022-11-09T14:06:02.584Z,72.09
2022-11-09T14:08:40.452Z,72.21
2022-11-09T14:11:20.778Z,70.55
2022-11-09T14:14:23.289Z,70.46
2022-11-09T14:17:02.426Z,71.01
2022-11-09T14:19:41.845Z,71.77
2022-11-09T14:22:17.602Z,72.47
2022-11-09T14:24:48.966Z,72.79
2022-11-09T14:27:21.843Z,72.77
2022-11-09T14:29:50.879Z,72.35
2022-11-09T14:32:18.221Z,72.84
2022-11-09T14:34:45.669Z,73.59
2022-11-09T14:37:16.344Z,73.97
2022-11-09T14:39:50.917Z,74.15
2022-11-09T14:42:21.054Z,74.37
2022-11-09T14:44:49.500Z,74.40
2022-11-09T14:47:33.683Z,74.93
2022-11-09T14:50:04.523Z,74.69
2022-11-09T14:52:32.433Z,75.35
2022-11-09T14:55:00.125Z,75.29
2022-11-09T14:57:27.594Z,75.46
2022-11-09T14:59:55.130Z,75.64
2022-11-09T15:02:26.805Z,76.06
2022-11-09T15:04:59.035Z,76.27
2022-11-09T15:07:33.847Z,76.12
2022-11-09T15:10:07.551Z,76.31
2022-11-09T15:12:47.066Z,76.62
2022-11-09T15:15:24.851Z,76.98
2022-11-09T15:17:54.955Z,77.57
2022-11-09T15:20:32.802Z,77.12
2022-11-09T15:23:21.123Z,77.07
2022-11-09T15:25:48.818Z,77.27
2022-11-09T15:28:26.988Z,77.56
2022-11-09T15:30:54.380Z,78.09
2022-11-09T15:33:23.613Z,78.95
2022-11-09T15:36:01.179Z,78.83
2022-11-09T15:38:28.778Z,79.15
2022-11-09T15:40:56.441Z,78.54
2022-11-09T15:43:23.947Z,78.50
2022-11-09T15:45:51.432Z,78.78
2022-11-09T15:48:19.498Z,78.66
2022-11-09T15:50:47.088Z,78.65
2022-11-09T15:53:15.136Z,80.09
2022-11-09T15:55:42.453Z,79.11
2022-11-09T15:58:14.112Z,79.41
2022-11-09T16:00:45.437Z,79.48
2022-11-09T16:03:13.469Z,80.19
2022-11-09T16:05:40.826Z,80.21
2022-11-09T16:08:08.188Z,80.46
2022-11-09T16:10:36.205Z,81.14
2022-11-09T16:13:05.200Z,77.43
2022-11-09T16:15:36.156Z,79.23
2022-11-09T16:18:06.832Z,80.30
2022-11-09T16:20:34.123Z,80.76
2022-11-09T16:23:01.472Z,81.44
2022-11-09T16:25:28.720Z,81.15
2022-11-09T16:27:56.371Z,81.38
2022-11-09T16:30:24.008Z,81.64
2022-11-09T16:32:51.607Z,81.96
2022-11-09T16:35:27.103Z,82.56
2022-11-09T16:37:55.559Z,82.85
2022-11-09T16:40:23.002Z,82.87
2022-11-09T16:42:51.922Z,82.89
2022-11-09T16:45:19.716Z,83.56
2022-11-09T16:47:53.838Z,83.64
2022-11-09T16:50:21.208Z,85.32
2022-11-09T16:52:48.675Z,76.43
2022-11-09T16:55:16.398Z,76.27
2022-11-09T16:57:46.415Z,78.48
2022-11-09T17:00:14.790Z,83.29
2022-11-09T17:02:42.050Z,83.90
2022-11-09T17:05:09.493Z,79.32
2022-11-09T17:07:42.225Z,69.94
2022-11-09T17:10:11.029Z,77.52
2022-11-09T17:12:38.292Z,71.98
2022-11-09T17:15:09.770Z,75.29
2022-11-09T17:17:37.051Z,69.75
2022-11-09T17:20:05.427Z,72.92
2022-11-09T17:22:33.159Z,68.47
2022-11-09T17:25:00.693Z,72.10
2022-11-09T17:27:28.072Z,68.09
2022-11-09T17:29:55.388Z,69.32
2022-11-09T17:32:22.910Z,70.50
2022-11-09T17:34:50.849Z,68.78
2022-11-09T17:37:18.051Z,67.30
2022-11-09T17:39:45.260Z,66.85
2022-11-09T17:42:12.501Z,67.39
2022-11-09T17:44:39.791Z,67.20
2022-11-09T17:47:07.114Z,67.59
2022-11-09T17:49:37.643Z,69.42
2022-11-09T17:52:05.158Z,75.46
2022-11-09T17:54:36.719Z,78.56
2022-11-09T17:57:04.557Z,81.80
2022-11-09T17:59:31.789Z,83.46
2022-11-09T18:01:59.044Z,84.49
2022-11-09T18:04:26.415Z,84.91
2022-11-09T18:06:53.667Z,85.56
2022-11-09T18:12:09.188Z,75.18
2022-11-09T18:14:38.999Z,76.86
2022-11-09T18:17:06.228Z,74.29
2022-11-09T18:19:33.519Z,72.07
2022-11-09T18:22:03.006Z,67.82
2022-11-09T18:24:31.002Z,73.83
2022-11-09T18:26:58.680Z,80.20
2022-11-09T18:29:25.877Z,82.49
2022-11-09T18:31:53.296Z,80.64
2022-11-09T18:34:20.784Z,84.08
2022-11-09T18:36:48.077Z,83.83
2022-11-09T18:39:15.290Z,85.60
2022-11-09T18:41:42.755Z,85.04
2022-11-09T18:44:10.238Z,87.63
2022-11-09T18:46:37.517Z,85.28
2022-11-09T18:49:05.248Z,87.36
2022-11-09T18:51:34.695Z,85.67
2022-11-09T18:54:02.331Z,87.85
2022-11-09T18:56:29.638Z,86.50
2022-11-09T18:58:56.866Z,87.18
2022-11-09T19:01:25.170Z,87.59
2022-11-09T19:03:57.814Z,88.07
2022-11-09T19:06:26.769Z,87.42
2022-11-09T19:08:54.004Z,88.54
2022-11-09T19:11:22.021Z,87.13
2022-11-09T19:13:50.071Z,89.24
2022-11-09T19:16:17.923Z,87.67
2022-11-09T19:18:45.452Z,90.47
2022-11-09T19:21:24.468Z,87.73
2022-11-09T19:23:51.970Z,88.84
2022-11-09T19:26:19.705Z,88.07
2022-11-09T19:28:46.917Z,88.23
2022-11-09T19:31:18.316Z,88.41
2022-11-09T19:33:45.574Z,91.31
2022-11-09T19:36:31.247Z,89.17
2022-11-09T19:38:59.422Z,87.63
2022-11-09T19:41:29.371Z,88.04
2022-11-09T19:43:57.764Z,89.62
2022-11-09T19:46:29.806Z,87.02
2022-11-09T19:48:57.822Z,86.39
2022-11-09T19:51:25.910Z,87.29
2022-11-09T19:53:55.210Z,92.26
2022-11-09T19:56:24.580Z,87.41
2022-11-09T19:58:54.543Z,88.92
2022-11-09T20:01:22.874Z,87.06
2022-11-09T20:03:52.055Z,90.98
2022-11-09T20:06:20.428Z,87.98
2022-11-09T20:08:47.829Z,86.89
2022-11-09T20:11:22.300Z,87.32
2022-11-09T20:13:52.585Z,92.89
2022-11-09T20:16:19.862Z,88.09
2022-11-09T20:18:47.420Z,88.53
2022-11-09T20:21:14.729Z,90.67
2022-11-09T20:23:42.015Z,88.90
2022-11-09T20:26:11.327Z,88.67
2022-11-09T20:28:38.600Z,88.90
2022-11-09T20:31:10.776Z,88.20
2022-11-09T20:33:38.146Z,90.77
2022-11-09T20:36:05.948Z,90.10
2022-11-09T20:38:35.978Z,92.45
2022-11-09T20:41:06.360Z,88.58
2022-11-09T20:43:33.864Z,90.33
2022-11-09T20:46:06.576Z,89.10
2022-11-09T20:49:04.746Z,89.59
2022-11-09T20:51:24.041Z,90.54
2022-11-09T20:53:51.952Z,90.48
2022-11-09T20:56:21.336Z,89.04
2022-11-09T20:58:49.149Z,90.69
2022-11-09T21:01:20.852Z,90.02
2022-11-09T21:03:51.845Z,90.00
2022-11-09T21:06:20.581Z,89.23
2022-11-09T21:08:50.863Z,89.83
2022-11-09T21:11:19.172Z,91.04
2022-11-09T21:13:51.249Z,88.90
2022-11-09T21:16:23.040Z,88.88
2022-11-09T21:18:51.614Z,88.93
2022-11-09T21:21:21.460Z,88.26
2022-11-09T21:23:49.015Z,92.87
2022-11-09T21:26:16.365Z,89.18
2022-11-09T21:28:43.623Z,87.90
2022-11-09T21:31:12.471Z,89.16
2022-11-09T21:33:40.578Z,88.19
2022-11-09T21:36:08.695Z,88.23
2022-11-09T21:38:39.805Z,89.04
2022-11-09T21:41:08.976Z,89.22
2022-11-09T21:43:36.353Z,90.06
2022-11-09T21:46:03.658Z,91.38
2022-11-09T21:48:30.882Z,91.75
2022-11-09T21:50:58.103Z,90.89
2022-11-09T21:53:25.309Z,90.52
2022-11-09T21:55:52.519Z,92.05
2022-11-09T21:58:19.829Z,90.13
2022-11-09T22:00:47.107Z,91.90
2022-11-09T22:03:17.496Z,90.03
2022-11-09T22:05:49.673Z,90.54
2022-11-09T22:08:16.885Z,89.10
2022-11-09T22:10:44.870Z,89.11
2022-11-09T22:13:14.265Z,89.29
2022-11-09T22:15:41.475Z,89.35
2022-11-09T22:18:08.748Z,91.10
2022-11-09T22:20:39.487Z,89.49
2022-11-09T22:23:10.697Z,89.50
2022-11-09T22:25:37.900Z,89.96
2022-11-09T22:28:05.207Z,89.80
2022-11-09T22:30:32.499Z,89.33
2022-11-09T22:33:02.545Z,89.07
2022-11-09T22:35:29.769Z,90.30
2022-11-09T22:38:01.158Z,89.06
2022-11-09T22:40:28.349Z,89.34
2022-11-09T22:42:56.749Z,89.14
2022-11-09T22:45:26.744Z,90.66
2022-11-09T22:47:53.960Z,91.00
2022-11-09T22:50:21.171Z,90.96
2022-11-09T22:52:53.354Z,90.02
2022-11-09T22:55:21.239Z,90.68
2022-11-09T22:57:48.595Z,92.43
2022-11-09T23:00:16.298Z,89.34
2022-11-09T23:02:43.744Z,90.14
2022-11-09T23:05:10.991Z,89.98
2022-11-09T23:07:38.225Z,90.45
2022-11-09T23:10:06.412Z,91.17
2022-11-09T23:12:34.289Z,90.56
2022-11-09T23:15:01.568Z,91.68
2022-11-09T23:17:28.889Z,91.15
2022-11-09T23:19:56.164Z,91.13
2022-11-09T23:22:23.656Z,91.37
2022-11-09T23:24:51.026Z,92.10
2022-11-09T23:27:18.383Z,93.09
2022-11-09T23:29:45.734Z,91.77
2022-11-09T23:32:12.904Z,91.67
2022-11-09T23:34:40.196Z,92.05
2022-11-09T23:37:07.515Z,91.58
2022-11-09T23:39:34.740Z,92.40
2022-11-09T23:42:01.944Z,91.77
2022-11-09T23:44:29.275Z,91.70
2022-11-09T23:46:56.482Z,94.49
2022-11-09T23:49:23.743Z,91.97
2022-11-09T23:51:51.333Z,93.09
2022-11-09T23:54:18.714Z,93.36
2022-11-09T23:56:46.065Z,93.44
2022-11-09T23:59:13.490Z,93.37
